Time;durP1;ratioP1;P1;durP2;ratioP2;P2;SDS_P1;SDS_P2;PMS_P1;PMS_P2;Temp;Humidity;BMP_temperature;BMP_pressure;BME280_temperature;BME280_humidity;BME280_pressure;Samples;Min_cycle;Max_cycle;Signal;HPM_P1;HPM_P2
2022/02/01 00:01:20;;;;;;;10.60;1.33;;;;;;;;;;4998405;28;20081;-56
2022/02/01 00:03:49;;;;;;;12.63;1.50;;;;;;;;;;4985531;28;20294;-56
2022/02/01 00:06:21;;;;;;;8.02;0.88;;;;;;;;;;4998282;28;20050;-58
2022/02/01 00:08:55;;;;;;;11.35;1.35;;;;;;;;;;4987137;28;20046;-55
2022/02/01 00:11:34;;;;;;;7.30;1.15;;;;;;;;;;4981602;28;20058;-56
2022/02/01 00:14:11;;;;;;;10.90;1.60;;;;;;;;;;4986546;28;20072;-56
2022/02/01 00:19:37;;;;;;;8.30;1.00;;;;;;;;;;4986743;28;20140;-55
2022/02/01 00:33:33;;;;;;;6.68;0.77;;;;;;;;;;4994911;28;20084;-57
2022/02/01 00:36:03;;;;;;;6.78;0.93;;;;;;;;;;4986317;28;20165;-57
2022/02/01 00:38:37;;;;;;;9.27;0.90;;;;;;;;;;4980784;28;20054;-51
2022/02/01 00:41:06;;;;;;;4.35;0.88;;;;;;;;;;4986215;28;20113;-54
2022/02/01 00:43:33;;;;;;;10.80;1.23;;;;;;;;;;4980044;28;20050;-56
2022/02/01 00:46:03;;;;;;;6.95;0.95;;;;;;;;;;4979959;28;20251;-56
2022/02/01 00:48:30;;;;;;;4.70;0.75;;;;;;;;;;4980902;28;20051;-54
2022/02/01 00:50:57;;;;;;;9.70;1.33;;;;;;;;;;5005465;28;20057;-57
2022/02/01 00:53:29;;;;;;;12.85;1.27;;;;;;;;;;4981727;28;20050;-56
2022/02/01 00:55:56;;;;;;;5.45;0.85;;;;;;;;;;4990345;28;20054;-55
2022/02/01 00:58:23;;;;;;;11.10;1.20;;;;;;;;;;4985144;28;21053;-58
2022/02/01 01:00:49;;;;;;;7.65;1.08;;;;;;;;;;4989709;28;20062;-55
2022/02/01 01:03:17;;;;;;;14.80;1.38;;;;;;;;;;4986167;28;20440;-56
2022/02/01 01:05:44;;;;;;;9.57;1.02;;;;;;;;;;5004856;28;20058;-54
2022/02/01 01:08:11;;;;;;;9.82;0.95;;;;;;;;;;5006505;28;20058;-58
2022/02/01 01:10:37;;;;;;;17.75;1.10;;;;;;;;;;4984330;28;20061;-56
2022/02/01 01:13:15;;;;;;;5.22;0.90;;;;;;;;;;4989870;28;20050;-57
2022/02/01 01:15:50;;;;;;;13.40;0.98;;;;;;;;;;4983698;28;20053;-57
2022/02/01 01:18:57;;;;;;;13.60;1.55;;;;;;;;;;5007720;28;20046;-52
2022/02/01 01:43:41;;;;;;;7.88;1.17;;;;;;;;;;5005153;28;20066;-58
2022/02/01 01:52:46;;;;;;;13.23;1.02;;;;;;;;;;4983575;28;20074;-58
2022/02/01 01:54:39;;;;;;;5.38;0.80;;;;;;;;;;5005173;28;20057;-54
2022/02/01 01:57:06;;;;;;;6.95;1.15;;;;;;;;;;5000701;28;20081;-57
2022/02/01 01:59:33;;;;;;;6.97;0.85;;;;;;;;;;4989924;28;20058;-58
2022/02/01 02:02:00;;;;;;;8.15;1.05;;;;;;;;;;4999687;28;20054;-58
2022/02/01 02:04:26;;;;;;;13.23;1.52;;;;;;;;;;4988425;28;20096;-55
2022/02/01 02:06:53;;;;;;;8.77;0.85;;;;;;;;;;4983374;28;20132;-57
2022/02/01 02:09:21;;;;;;;8.02;1.00;;;;;;;;;;4989523;28;20046;-58
2022/02/01 02:11:54;;;;;;;7.85;0.73;;;;;;;;;;4982746;28;20116;-55
2022/02/01 02:14:20;;;;;;;12.20;1.50;;;;;;;;;;4986751;28;20058;-56
2022/02/01 02:16:48;;;;;;;2.85;0.63;;;;;;;;;;4999639;28;20078;-57
2022/02/01 02:19:16;;;;;;;4.75;0.80;;;;;;;;;;4989106;28;20049;-56
2022/02/01 02:21:47;;;;;;;4.37;1.10;;;;;;;;;;5000694;28;20585;-58
2022/02/01 02:24:14;;;;;;;7.25;0.98;;;;;;;;;;4989543;28;20923;-58
2022/02/01 02:26:41;;;;;;;9.38;0.90;;;;;;;;;;4999676;28;20464;-57
2022/02/01 02:29:07;;;;;;;8.32;1.00;;;;;;;;;;4989088;28;20308;-56
2022/02/01 02:31:37;;;;;;;8.07;0.82;;;;;;;;;;4988973;28;20046;-55
2022/02/01 02:34:07;;;;;;;6.30;0.50;;;;;;;;;;4999216;28;20062;-56
2022/02/01 02:36:36;;;;;;;4.15;0.70;;;;;;;;;;5005328;28;20058;-53
2022/02/01 02:39:09;;;;;;;10.00;0.82;;;;;;;;;;4983500;28;20242;-56
2022/02/01 02:41:38;;;;;;;8.02;0.82;;;;;;;;;;4988455;28;20050;-54
2022/02/01 02:46:50;;;;;;;5.35;0.50;;;;;;;;;;5004956;28;20063;-50
2022/02/01 02:49:18;;;;;;;3.97;0.80;;;;;;;;;;4982991;28;20078;-57
2022/02/01 02:51:44;;;;;;;2.58;0.50;;;;;;;;;;4988402;28;20054;-58
2022/02/01 02:54:13;;;;;;;3.75;0.65;;;;;;;;;;4983310;28;20061;-59
2022/02/01 02:56:39;;;;;;;;;;;;;;;;;;4990592;28;20046;-56
2022/02/01 02:59:06;;;;;;;9.63;0.73;;;;;;;;;;5000394;28;19965;-51
2022/02/01 03:01:33;;;;;;;6.45;0.60;;;;;;;;;;4988344;28;20145;-58
2022/02/01 03:03:59;;;;;;;6.05;0.70;;;;;;;;;;4999265;28;20042;-59
2022/02/01 03:06:27;;;;;;;9.55;0.98;;;;;;;;;;4987718;28;20050;-58
2022/02/01 03:08:53;;;;;;;15.57;1.00;;;;;;;;;;4982110;28;20077;-58
2022/02/01 03:11:21;;;;;;;5.80;1.00;;;;;;;;;;4988543;28;20059;-55
2022/02/01 03:13:54;;;;;;;4.22;0.38;;;;;;;;;;4997343;28;20046;-54
2022/02/01 03:21:51;;;;;;;5.53;0.75;;;;;;;;;;5003731;28;20061;-55
2022/02/01 03:24:17;;;;;;;9.32;1.00;;;;;;;;;;4982297;28;20042;-58
2022/02/01 03:26:45;;;;;;;6.38;0.75;;;;;;;;;;4987649;28;20096;-58
2022/02/01 03:29:12;;;;;;;8.13;0.83;;;;;;;;;;4979970;28;20093;-59
2022/02/01 03:31:39;;;;;;;7.00;0.65;;;;;;;;;;4986789;28;20309;-57
2022/02/01 03:34:05;;;;;;;13.20;1.02;;;;;;;;;;4987692;28;20569;-53
2022/02/01 03:36:32;;;;;;;5.68;0.85;;;;;;;;;;4983185;28;20053;-54
2022/02/01 03:38:59;;;;;;;5.30;0.43;;;;;;;;;;4986999;28;20042;-56
2022/02/01 03:41:26;;;;;;;5.25;0.70;;;;;;;;;;4981682;28;20050;-58
2022/02/01 03:43:54;;;;;;;6.75;0.88;;;;;;;;;;5002686;28;20061;-57
2022/02/01 03:46:21;;;;;;;1.73;0.60;;;;;;;;;;4998040;28;20070;-57
2022/02/01 03:48:47;;;;;;;2.95;0.70;;;;;;;;;;4987290;28;20052;-58
2022/02/01 03:51:14;;;;;;;7.47;0.77;;;;;;;;;;4981895;28;20126;-58
2022/02/01 03:53:41;;;;;;;3.90;0.57;;;;;;;;;;4989529;28;20591;-57
2022/02/01 03:56:07;;;;;;;9.30;0.52;;;;;;;;;;4981712;28;20058;-56
2022/02/01 03:58:34;;;;;;;2.70;0.70;;;;;;;;;;5003605;28;20514;-58
2022/02/01 04:01:02;;;;;;;2.53;0.63;;;;;;;;;;4981684;28;20062;-59
2022/02/01 04:03:28;;;;;;;2.65;0.65;;;;;;;;;;4986455;28;20058;-58
2022/02/01 04:05:56;;;;;;;5.88;0.77;;;;;;;;;;4997647;28;20086;-54
2022/02/01 04:08:24;;;;;;;7.72;0.77;;;;;;;;;;4987380;28;20058;-56
2022/02/01 04:10:51;;;;;;;6.75;0.52;;;;;;;;;;4981514;28;20054;-56
2022/02/01 04:13:19;;;;;;;4.07;0.80;;;;;;;;;;4986570;28;20050;-57
2022/02/01 04:15:46;;;;;;;6.93;0.70;;;;;;;;;;4983891;28;20448;-57
2022/02/01 04:18:14;;;;;;;3.00;0.60;;;;;;;;;;5002130;28;20054;-57
2022/02/01 04:20:41;;;;;;;4.10;0.60;;;;;;;;;;4986922;28;20062;-58
2022/02/01 04:23:09;;;;;;;7.38;0.77;;;;;;;;;;4998639;28;20050;-57
2022/02/01 04:25:36;;;;;;;2.42;0.57;;;;;;;;;;4988859;28;20065;-59
2022/02/01 04:28:02;;;;;;;11.98;1.15;;;;;;;;;;4998103;28;20065;-55
2022/02/01 04:30:29;;;;;;;11.35;1.35;;;;;;;;;;4986934;28;20054;-58
2022/02/01 04:32:56;;;;;;;6.95;0.80;;;;;;;;;;4980696;28;20500;-58
2022/02/01 04:35:25;;;;;;;9.48;0.98;;;;;;;;;;5002975;28;20089;-55
2022/02/01 04:37:54;;;;;;;6.05;1.15;;;;;;;;;;4997618;28;20134;-56
2022/02/01 04:40:20;;;;;;;2.22;0.73;;;;;;;;;;4986656;28;20054;-58
2022/02/01 04:42:47;;;;;;;10.80;1.00;;;;;;;;;;4980467;28;20055;-57
2022/02/01 04:45:16;;;;;;;7.63;0.73;;;;;;;;;;4986614;28;20061;-56
2022/02/01 04:47:43;;;;;;;;;;;;;;;;;;4981579;28;20081;-57
2022/02/01 04:50:12;;;;;;;1.75;0.50;;;;;;;;;;5002280;28;19932;-58
2022/02/01 04:52:41;;;;;;;7.32;1.20;;;;;;;;;;4997073;28;20125;-57
2022/02/01 04:55:07;;;;;;;;;;;;;;;;;;4986490;28;20165;-56
2022/02/01 04:57:35;;;;;;;5.90;0.88;;;;;;;;;;4996905;28;19925;-58
2022/02/01 05:00:02;;;;;;;5.68;0.88;;;;;;;;;;4986193;28;20058;-57
2022/02/01 05:02:28;;;;;;;8.38;1.10;;;;;;;;;;4985573;28;20133;-57
2022/02/01 05:04:55;;;;;;;5.30;0.90;;;;;;;;;;4980670;28;20374;-54
2022/02/01 05:07:22;;;;;;;5.15;0.95;;;;;;;;;;4985609;28;20097;-57
2022/02/01 05:09:51;;;;;;;5.03;0.93;;;;;;;;;;4981296;28;20469;-56
2022/02/01 05:12:18;;;;;;;8.05;1.25;;;;;;;;;;4986057;28;20058;-57
2022/02/01 05:14:44;;;;;;;4.55;0.88;;;;;;;;;;4980172;28;20050;-58
2022/02/01 05:17:11;;;;;;;6.78;1.30;;;;;;;;;;4986400;28;20054;-55
2022/02/01 05:19:56;;;;;;;2.78;0.70;;;;;;;;;;4980906;28;20146;-57
2022/02/01 05:22:25;;;;;;;10.18;1.50;;;;;;;;;;4986797;28;20058;-59
2022/02/01 05:24:55;;;;;;;8.52;0.90;;;;;;;;;;4980553;28;20055;-57
2022/02/01 05:27:27;;;;;;;10.25;1.50;;;;;;;;;;4986317;28;20058;-58
2022/02/01 05:29:56;;;;;;;10.15;1.27;;;;;;;;;;4980365;28;20050;-57
2022/02/01 05:32:25;;;;;;;;;;;;;;;;;;5003067;28;20054;-58
2022/02/01 05:34:52;;;;;;;5.90;0.80;;;;;;;;;;4994345;28;19964;-55
2022/02/01 05:37:19;;;;;;;6.22;1.52;;;;;;;;;;5007168;28;20125;-54
2022/02/01 05:39:45;;;;;;;4.57;1.02;;;;;;;;;;5001287;28;20058;-57
2022/02/01 05:42:18;;;;;;;6.72;1.30;;;;;;;;;;4990137;28;20508;-54
2022/02/01 05:44:44;;;;;;;5.95;1.10;;;;;;;;;;4984391;28;20050;-55
2022/02/01 05:47:13;;;;;;;15.20;1.27;;;;;;;;;;4990379;28;20073;-56
2022/02/01 05:49:39;;;;;;;3.35;0.95;;;;;;;;;;4985019;28;21682;-55
2022/02/01 05:52:13;;;;;;;10.13;1.33;;;;;;;;;;4991451;28;20059;-56
2022/02/01 05:54:40;;;;;;;13.68;2.50;;;;;;;;;;4986192;28;20062;-56
2022/02/01 05:57:08;;;;;;;19.25;2.28;;;;;;;;;;5006228;28;20157;-55
2022/02/01 05:59:37;;;;;;;8.45;1.40;;;;;;;;;;5000032;28;20054;-55
2022/02/01 06:02:04;;;;;;;7.50;1.35;;;;;;;;;;4981560;28;20077;-58
2022/02/01 06:04:31;;;;;;;11.25;1.02;;;;;;;;;;4987622;28;20054;-58
2022/02/01 06:06:57;;;;;;;11.75;1.40;;;;;;;;;;4982069;28;20165;-58
2022/02/01 06:09:24;;;;;;;7.65;1.25;;;;;;;;;;5003218;28;20526;-58
2022/02/01 06:11:51;;;;;;;6.75;1.23;;;;;;;;;;4981456;28;20054;-58
2022/02/01 06:14:17;;;;;;;3.40;1.20;;;;;;;;;;4987535;28;20050;-58
2022/02/01 06:16:45;;;;;;;21.88;3.50;;;;;;;;;;4981112;28;20161;-53
2022/02/01 06:19:12;;;;;;;10.57;1.90;;;;;;;;;;4987073;28;20062;-56
2022/02/01 06:21:39;;;;;;;5.97;1.42;;;;;;;;;;4981110;28;20065;-54
2022/02/01 06:24:07;;;;;;;10.00;1.80;;;;;;;;;;4987814;28;20077;-54
2022/02/01 06:26:34;;;;;;;11.20;1.48;;;;;;;;;;4998074;28;20136;-56
2022/02/01 06:29:00;;;;;;;10.98;1.30;;;;;;;;;;4986813;28;20047;-54
2022/02/01 06:31:27;;;;;;;8.40;1.85;;;;;;;;;;4998417;28;20054;-54
2022/02/01 06:33:55;;;;;;;17.40;1.95;;;;;;;;;;4987039;28;20153;-57
2022/02/01 06:36:21;;;;;;;12.52;3.63;;;;;;;;;;4980952;28;20081;-56
2022/02/01 06:38:48;;;;;;;8.68;1.65;;;;;;;;;;4987305;28;20669;-52
2022/02/01 06:41:14;;;;;;;9.45;1.67;;;;;;;;;;4987929;28;20053;-58
2022/02/01 06:43:42;;;;;;;7.57;2.00;;;;;;;;;;4981860;28;20086;-55
2022/02/01 06:46:09;;;;;;;10.82;1.73;;;;;;;;;;4987439;28;20126;-51
2022/02/01 06:48:35;;;;;;;8.40;1.83;;;;;;;;;;4982496;28;20578;-55
2022/02/01 06:51:03;;;;;;;7.88;1.60;;;;;;;;;;4987730;28;20149;-56
2022/02/01 06:53:33;;;;;;;13.40;2.40;;;;;;;;;;4981798;28;20054;-55
2022/02/01 06:56:06;;;;;;;11.13;2.00;;;;;;;;;;4987417;28;20046;-53
2022/02/01 06:58:32;;;;;;;8.52;1.80;;;;;;;;;;4981642;28;20038;-52
2022/02/01 07:00:59;;;;;;;12.95;2.33;;;;;;;;;;4988008;28;20078;-51
2022/02/01 07:03:25;;;;;;;10.93;2.30;;;;;;;;;;4982055;28;20064;-56
2022/02/01 07:05:54;;;;;;;10.05;2.28;;;;;;;;;;4987499;28;20050;-57
2022/02/01 07:08:22;;;;;;;18.50;2.42;;;;;;;;;;4999100;28;20050;-53
2022/02/01 07:10:48;;;;;;;12.63;2.93;;;;;;;;;;4985917;28;20055;-53
2022/02/01 07:13:16;;;;;;;11.55;1.67;;;;;;;;;;4999010;28;20133;-53
2022/02/01 07:15:43;;;;;;;10.02;3.75;;;;;;;;;;4988074;28;20139;-57
2022/02/01 07:18:09;;;;;;;9.88;2.65;;;;;;;;;;4982118;28;20058;-56
2022/02/01 07:20:36;;;;;;;9.02;2.83;;;;;;;;;;5004632;28;20076;-54
2022/02/01 07:23:04;;;;;;;5.65;1.65;;;;;;;;;;4985609;28;20113;-55
2022/02/01 07:25:43;;;;;;;12.18;2.67;;;;;;;;;;4986739;28;20058;-57
2022/02/01 07:28:09;;;;;;;13.43;3.70;;;;;;;;;;4987435;28;20065;-54
2022/02/01 07:30:36;;;;;;;11.07;2.85;;;;;;;;;;4981821;28;20100;-52
2022/02/01 07:33:02;;;;;;;14.77;2.88;;;;;;;;;;4987265;28;20058;-56
2022/02/01 07:35:30;;;;;;;12.63;2.97;;;;;;;;;;4997836;28;20499;-55
2022/02/01 07:37:57;;;;;;;12.95;3.28;;;;;;;;;;4988240;28;20050;-55
2022/02/01 07:40:24;;;;;;;11.70;3.10;;;;;;;;;;4981753;28;20504;-51
2022/02/01 07:42:53;;;;;;;6.40;2.33;;;;;;;;;;4987082;28;20238;-55
2022/02/01 07:45:23;;;;;;;9.80;2.55;;;;;;;;;;4981414;28;20081;-55
2022/02/01 07:47:50;;;;;;;5.85;2.05;;;;;;;;;;4985771;28;20054;-55
2022/02/01 07:50:17;;;;;;;8.38;2.42;;;;;;;;;;4997049;28;20057;-55
2022/02/01 07:52:45;;;;;;;9.88;3.20;;;;;;;;;;4987065;28;20050;-54
2022/02/01 07:55:11;;;;;;;7.95;2.67;;;;;;;;;;4997256;28;20077;-52
2022/02/01 07:57:38;;;;;;;8.75;2.83;;;;;;;;;;4986798;28;20051;-56
2022/02/01 08:00:07;;;;;;;12.13;3.35;;;;;;;;;;4981165;28;20141;-52
2022/02/01 08:02:35;;;;;;;10.85;3.42;;;;;;;;;;4986567;28;20046;-55
2022/02/01 08:05:01;;;;;;;7.30;3.05;;;;;;;;;;4979639;28;20078;-55
2022/02/01 08:07:28;;;;;;;8.98;3.72;;;;;;;;;;5003094;28;20078;-56
2022/02/01 08:09:58;;;;;;;8.15;3.17;;;;;;;;;;4982386;28;20058;-57
2022/02/01 08:18:07;;;;;;;10.77;4.72;;;;;;;;;;4968201;28;20050;-54
2022/02/01 08:20:43;;;;;;;11.23;3.88;;;;;;;;;;4964705;28;21068;-52
2022/02/01 08:23:12;;;;;;;13.93;3.70;;;;;;;;;;4986551;28;20058;-52
2022/02/01 08:25:38;;;;;;;;;;;;;;;;;;4981879;28;20046;-55
2022/02/01 08:28:05;;;;;;;9.75;2.92;;;;;;;;;;4986671;28;19929;-53
2022/02/01 08:30:34;;;;;;;7.22;2.70;;;;;;;;;;5002026;28;20075;-50
2022/02/01 08:33:01;;;;;;;8.75;3.78;;;;;;;;;;4997043;28;20116;-55
2022/02/01 08:35:28;;;;;;;8.93;3.38;;;;;;;;;;5004587;28;20065;-54
2022/02/01 08:37:54;;;;;;;7.68;3.28;;;;;;;;;;4981505;28;20055;-54
2022/02/01 08:40:22;;;;;;;7.32;2.70;;;;;;;;;;5002927;28;20112;-54
2022/02/01 08:42:50;;;;;;;10.77;3.55;;;;;;;;;;4980036;28;20046;-54
2022/02/01 08:45:22;;;;;;;9.85;3.72;;;;;;;;;;5002789;28;20058;-55
2022/02/01 08:47:50;;;;;;;7.00;2.85;;;;;;;;;;4981203;28;20408;-54
2022/02/01 08:50:19;;;;;;;6.65;2.83;;;;;;;;;;5002766;28;20058;-53
2022/02/01 08:52:48;;;;;;;7.60;3.25;;;;;;;;;;4980661;28;20109;-51
2022/02/01 08:55:22;;;;;;;9.13;3.45;;;;;;;;;;4985737;28;20059;-53
2022/02/01 08:57:49;;;;;;;6.68;2.47;;;;;;;;;;4980901;28;20101;-58
2022/02/01 09:00:17;;;;;;;5.75;2.47;;;;;;;;;;4985242;28;20047;-52
2022/02/01 09:02:44;;;;;;;8.57;3.15;;;;;;;;;;4996360;28;20051;-56
2022/02/01 09:05:12;;;;;;;7.05;2.70;;;;;;;;;;4985686;28;20058;-56
2022/02/01 09:07:39;;;;;;;7.53;3.03;;;;;;;;;;4979769;28;20046;-55
2022/02/01 09:10:06;;;;;;;6.63;2.70;;;;;;;;;;4986925;28;20054;-56
2022/02/01 09:12:34;;;;;;;5.93;2.50;;;;;;;;;;5000361;28;20054;-56
2022/02/01 09:15:01;;;;;;;7.15;2.40;;;;;;;;;;4989589;28;20057;-56
2022/02/01 09:17:27;;;;;;;6.28;2.75;;;;;;;;;;4989297;28;20050;-53
2022/02/01 09:19:54;;;;;;;4.53;1.95;;;;;;;;;;5003777;28;20122;-54
2022/02/01 09:22:22;;;;;;;5.05;2.22;;;;;;;;;;4989886;28;20132;-56
2022/02/01 09:24:49;;;;;;;5.93;2.40;;;;;;;;;;4984667;28;20062;-54
2022/02/01 09:27:15;;;;;;;4.80;2.40;;;;;;;;;;5006513;28;20062;-55
2022/02/01 09:29:42;;;;;;;6.88;2.58;;;;;;;;;;4983570;28;20058;-55
2022/02/01 09:32:09;;;;;;;6.95;2.47;;;;;;;;;;4990106;28;20074;-56
2022/02/01 09:34:35;;;;;;;5.20;2.05;;;;;;;;;;4984093;28;20065;-56
2022/02/01 09:37:03;;;;;;;4.97;2.60;;;;;;;;;;5006091;28;20064;-55
2022/02/01 09:39:31;;;;;;;7.25;2.72;;;;;;;;;;4984149;28;20105;-57
2022/02/01 09:41:59;;;;;;;5.20;2.45;;;;;;;;;;4989698;28;20062;-56
2022/02/01 09:44:25;;;;;;;8.68;2.50;;;;;;;;;;4983989;28;20069;-56
2022/02/01 09:46:52;;;;;;;5.45;2.42;;;;;;;;;;5006448;28;20054;-57
2022/02/01 09:49:19;;;;;;;3.97;2.03;;;;;;;;;;4984005;28;20146;-53
2022/02/01 09:51:48;;;;;;;5.25;2.50;;;;;;;;;;4990042;28;20054;-56
2022/02/01 09:54:14;;;;;;;;;;;;;;;;;;4984415;28;20114;-58
2022/02/01 09:56:43;;;;;;;3.47;1.35;;;;;;;;;;5007073;28;19949;-58
2022/02/01 09:59:16;;;;;;;4.90;1.77;;;;;;;;;;5003059;28;20042;-58
2022/02/01 10:01:44;;;;;;;6.05;2.10;;;;;;;;;;4986436;28;20142;-58
2022/02/01 10:04:10;;;;;;;4.38;1.75;;;;;;;;;;4969844;28;20063;-56
2022/02/01 10:06:38;;;;;;;8.57;2.10;;;;;;;;;;4999372;28;20054;-56
2022/02/01 10:09:05;;;;;;;3.45;1.83;;;;;;;;;;5005378;28;20116;-56
2022/02/01 10:11:37;;;;;;;5.28;2.03;;;;;;;;;;4999345;28;20065;-53
2022/02/01 10:14:07;;;;;;;4.63;2.47;;;;;;;;;;4988557;28;20508;-55
2022/02/01 10:16:41;;;;;;;4.88;2.42;;;;;;;;;;4999626;28;20050;-58
2022/02/01 10:19:08;;;;;;;5.60;2.10;;;;;;;;;;5004796;28;20108;-57
2022/02/01 10:21:35;;;;;;;4.20;1.92;;;;;;;;;;4998448;28;20050;-54
2022/02/01 10:24:05;;;;;;;9.80;2.88;;;;;;;;;;4988334;28;20477;-53
2022/02/01 10:26:33;;;;;;;6.38;2.97;;;;;;;;;;4983004;28;20053;-57
2022/02/01 10:29:16;;;;;;;4.97;2.60;;;;;;;;;;4988788;28;20129;-56
2022/02/01 10:31:48;;;;;;;3.50;1.80;;;;;;;;;;4981956;28;20051;-58
2022/02/01 10:34:42;;;;;;;4.65;2.28;;;;;;;;;;4988339;28;20332;-56
2022/02/01 10:37:16;;;;;;;5.10;2.17;;;;;;;;;;4997901;28;20046;-57
2022/02/01 10:39:43;;;;;;;7.20;2.75;;;;;;;;;;4988510;28;20074;-57
2022/02/01 10:42:12;;;;;;;4.07;1.75;;;;;;;;;;4982710;28;20066;-57
2022/02/01 10:44:40;;;;;;;5.13;2.38;;;;;;;;;;4988454;28;20050;-58
2022/02/01 10:47:08;;;;;;;4.63;1.75;;;;;;;;;;4973154;28;20214;-57
2022/02/01 10:49:35;;;;;;;4.05;1.80;;;;;;;;;;4985544;28;20121;-55
2022/02/01 10:52:03;;;;;;;5.57;1.92;;;;;;;;;;4970988;28;20062;-56
2022/02/01 10:54:31;;;;;;;5.10;2.28;;;;;;;;;;4988265;28;20054;-58
2022/02/01 10:56:58;;;;;;;7.20;1.65;;;;;;;;;;4982558;28;20116;-58
2022/02/01 10:59:25;;;;;;;5.10;2.28;;;;;;;;;;4988164;28;20089;-55
2022/02/01 11:01:52;;;;;;;2.60;1.40;;;;;;;;;;4974253;28;21364;-57
2022/02/01 11:04:20;;;;;;;4.53;1.60;;;;;;;;;;4987731;28;20062;-57
2022/02/01 11:06:50;;;;;;;4.28;2.10;;;;;;;;;;4983078;28;20142;-55
2022/02/01 11:09:17;;;;;;;2.55;1.45;;;;;;;;;;4968674;28;20082;-57
2022/02/01 11:11:50;;;;;;;2.55;1.33;;;;;;;;;;4985125;28;20058;-56
2022/02/01 11:14:19;;;;;;;3.50;1.90;;;;;;;;;;4981188;28;20050;-58
2022/02/01 11:16:45;;;;;;;;;;;;;;;;;;5004854;28;20070;-55
2022/02/01 11:19:11;;;;;;;1.75;1.10;;;;;;;;;;4981605;28;19925;-57
2022/02/01 11:21:46;;;;;;;3.42;1.48;;;;;;;;;;4987591;28;20050;-56
2022/02/01 11:24:30;;;;;;;6.68;1.67;;;;;;;;;;4983434;28;20137;-57
2022/02/01 11:27:03;;;;;;;3.13;1.65;;;;;;;;;;5005461;28;20104;-58
2022/02/01 11:29:38;;;;;;;1.90;1.17;;;;;;;;;;4984147;28;20142;-58
2022/02/01 11:32:05;;;;;;;4.82;1.70;;;;;;;;;;4988376;28;20054;-57
2022/02/01 11:34:33;;;;;;;2.53;1.50;;;;;;;;;;4980618;28;20050;-56
2022/02/01 11:37:03;;;;;;;3.83;1.50;;;;;;;;;;4987569;28;20057;-58
2022/02/01 11:39:30;;;;;;;2.58;1.40;;;;;;;;;;4981929;28;20065;-57
2022/02/01 11:42:00;;;;;;;4.03;1.40;;;;;;;;;;4987894;28;20054;-56
2022/02/01 11:44:29;;;;;;;2.70;1.40;;;;;;;;;;4981232;28;20066;-56
2022/02/01 11:47:07;;;;;;;5.82;1.60;;;;;;;;;;4986931;28;20058;-57
2022/02/01 11:49:34;;;;;;;4.63;1.55;;;;;;;;;;4980151;28;20054;-55
2022/02/01 11:52:10;;;;;;;3.88;1.30;;;;;;;;;;4986538;28;20432;-56
2022/02/01 11:54:37;;;;;;;3.20;1.60;;;;;;;;;;4981110;28;20066;-57
2022/02/01 11:57:13;;;;;;;3.20;1.70;;;;;;;;;;5003193;28;20058;-57
2022/02/01 11:59:49;;;;;;;3.92;1.65;;;;;;;;;;4997604;28;20054;-55
2022/02/01 12:02:23;;;;;;;5.65;2.03;;;;;;;;;;5002865;28;20058;-55
2022/02/01 12:04:49;;;;;;;7.30;2.22;;;;;;;;;;4981105;28;20132;-56
2022/02/01 12:07:23;;;;;;;7.10;2.30;;;;;;;;;;4986786;28;20070;-56
2022/02/01 12:09:50;;;;;;;7.55;2.50;;;;;;;;;;4980705;28;20055;-57
2022/02/01 12:12:23;;;;;;;8.90;2.47;;;;;;;;;;5003134;28;20082;-57
2022/02/01 12:14:55;;;;;;;7.78;2.53;;;;;;;;;;4980628;28;20085;-57
2022/02/01 12:17:22;;;;;;;8.48;2.15;;;;;;;;;;4987005;28;20570;-57
2022/02/01 12:19:54;;;;;;;12.48;3.38;;;;;;;;;;4981732;28;20050;-54
2022/02/01 12:22:26;;;;;;;10.07;2.88;;;;;;;;;;4987968;28;20066;-54
2022/02/01 12:25:01;;;;;;;6.97;2.08;;;;;;;;;;4981534;28;20054;-59
2022/02/01 12:27:33;;;;;;;13.32;2.90;;;;;;;;;;4987397;28;20091;-55
2022/02/01 12:30:00;;;;;;;12.93;2.35;;;;;;;;;;4983534;28;20061;-53
2022/02/01 12:32:28;;;;;;;8.38;2.17;;;;;;;;;;5001769;28;20571;-58
2022/02/01 12:34:54;;;;;;;10.25;2.58;;;;;;;;;;4986423;28;20050;-56
2022/02/01 12:37:23;;;;;;;9.93;2.10;;;;;;;;;;4981266;28;20050;-57
2022/02/01 12:39:58;;;;;;;17.33;2.40;;;;;;;;;;4970123;28;20137;-54
2022/02/01 12:42:34;;;;;;;12.18;1.90;;;;;;;;;;4980696;28;20046;-58
2022/02/01 12:47:44;;;;;;;14.73;2.67;;;;;;;;;;5000448;28;20047;-58
2022/02/01 12:50:12;;;;;;;11.80;2.13;;;;;;;;;;4990729;28;20046;-54
2022/02/01 12:52:42;;;;;;;10.38;2.33;;;;;;;;;;5001946;28;20320;-56
2022/02/01 12:55:10;;;;;;;13.82;2.40;;;;;;;;;;5007271;28;20495;-59
2022/02/01 12:57:37;;;;;;;7.73;2.53;;;;;;;;;;5002186;28;20073;-58
2022/02/01 13:00:05;;;;;;;10.73;2.20;;;;;;;;;;5007816;28;20068;-61
2022/02/01 13:02:33;;;;;;;18.58;2.38;;;;;;;;;;4984775;28;20065;-57
2022/02/01 13:05:02;;;;;;;13.07;2.13;;;;;;;;;;4990432;28;20070;-58
2022/02/01 13:07:42;;;;;;;6.55;1.83;;;;;;;;;;5000832;28;20061;-57
2022/02/01 13:13:04;;;;;;;5.85;1.80;;;;;;;;;;4999745;28;20109;-56
2022/02/01 13:15:35;;;;;;;9.32;2.03;;;;;;;;;;4989510;28;20141;-58
2022/02/01 13:18:21;;;;;;;10.93;2.03;;;;;;;;;;5001638;28;20058;-55
2022/02/01 13:20:56;;;;;;;8.80;1.77;;;;;;;;;;4990832;28;20050;-55
2022/02/01 13:23:23;;;;;;;7.65;1.42;;;;;;;;;;4984305;28;20054;-57
2022/02/01 13:25:51;;;;;;;6.13;1.52;;;;;;;;;;4990291;28;20077;-55
2022/02/01 13:28:17;;;;;;;9.48;2.03;;;;;;;;;;4985091;28;20559;-54
2022/02/01 13:30:45;;;;;;;9.90;1.73;;;;;;;;;;4989710;28;20054;-57
2022/02/01 13:33:12;;;;;;;9.52;1.65;;;;;;;;;;4984120;28;20054;-58
2022/02/01 13:35:46;;;;;;;5.45;1.35;;;;;;;;;;5005491;28;20058;-56
2022/02/01 13:38:12;;;;;;;10.13;1.30;;;;;;;;;;4999600;28;20054;-56
2022/02/01 13:40:40;;;;;;;11.75;1.92;;;;;;;;;;4989632;28;20046;-57
2022/02/01 13:43:18;;;;;;;8.65;1.73;;;;;;;;;;4984217;28;20050;-57
2022/02/01 13:45:45;;;;;;;12.00;1.80;;;;;;;;;;4989652;28;20046;-57
2022/02/01 13:48:18;;;;;;;6.68;1.90;;;;;;;;;;4983870;28;20991;-56
2022/02/01 13:50:47;;;;;;;8.20;1.50;;;;;;;;;;4990028;28;20085;-56
2022/02/01 13:53:17;;;;;;;8.93;1.48;;;;;;;;;;4986677;28;20074;-59
2022/02/01 13:55:44;;;;;;;6.07;1.67;;;;;;;;;;4989917;28;20046;-56
2022/02/01 13:58:13;;;;;;;6.22;1.90;;;;;;;;;;4989662;28;20054;-58
2022/02/01 14:00:41;;;;;;;4.63;1.88;;;;;;;;;;4984081;28;20124;-55
2022/02/01 14:03:24;;;;;;;6.43;1.30;;;;;;;;;;5005569;28;20078;-57
2022/02/01 14:06:06;;;;;;;5.97;1.30;;;;;;;;;;4983691;28;20058;-58
2022/02/01 14:08:41;;;;;;;14.00;1.55;;;;;;;;;;4983688;28;20132;-58
2022/02/01 14:14:23;;;;;;;8.48;1.42;;;;;;;;;;4925373;29;20052;-55
2022/02/01 14:28:10;;;;;;;11.43;1.70;;;;;;;;;;5006412;28;20112;-53
2022/02/01 14:36:12;;;;;;;7.47;1.15;;;;;;;;;;4963442;28;20639;-57
2022/02/01 14:38:59;;;;;;;22.02;2.55;;;;;;;;;;5002727;28;20054;-55
2022/02/01 14:46:57;;;;;;;27.45;1.92;;;;;;;;;;4992475;28;20062;-57
2022/02/01 14:49:24;;;;;;;15.35;1.58;;;;;;;;;;4987969;28;20101;-58
2022/02/01 14:51:52;;;;;;;7.67;1.23;;;;;;;;;;4983431;28;20053;-57
2022/02/01 14:54:21;;;;;;;11.38;1.58;;;;;;;;;;5004631;28;20395;-56
2022/02/01 14:56:51;;;;;;;26.30;2.60;;;;;;;;;;4998468;28;20055;-58
2022/02/01 15:05:14;;;;;;;15.80;1.75;;;;;;;;;;4977802;28;20136;-57
2022/02/01 15:07:52;;;;;;;11.77;1.58;;;;;;;;;;4996276;28;20116;-59
2022/02/01 15:13:05;;;;;;;19.20;1.80;;;;;;;;;;4997932;28;20065;-59
2022/02/01 15:15:31;;;;;;;;;;;;;;;;;;5004788;28;20126;-57
2022/02/01 15:17:59;;;;;;;6.28;1.42;;;;;;;;;;4998500;28;19983;-58
2022/02/01 15:20:28;;;;;;;20.43;2.00;;;;;;;;;;4987802;28;20062;-59
2022/02/01 15:22:55;;;;;;;5.10;1.38;;;;;;;;;;4982472;28;20786;-58
2022/02/01 15:25:21;;;;;;;9.70;1.23;;;;;;;;;;5004485;28;20459;-56
2022/02/01 15:27:48;;;;;;;25.83;2.67;;;;;;;;;;4982365;28;20058;-57
2022/02/01 15:30:14;;;;;;;15.45;1.60;;;;;;;;;;4987845;28;20050;-59
2022/02/01 15:32:41;;;;;;;15.20;1.30;;;;;;;;;;4981694;28;20146;-57
2022/02/01 15:35:13;;;;;;;13.00;1.63;;;;;;;;;;4987270;28;20117;-56
2022/02/01 15:37:42;;;;;;;17.65;1.77;;;;;;;;;;4982268;28;20062;-58
2022/02/01 15:46:37;;;;;;;9.18;1.60;;;;;;;;;;5003338;28;20129;-59
2022/02/01 15:54:56;;;;;;;11.90;1.10;;;;;;;;;;4914058;29;20087;-53
2022/02/01 15:57:27;;;;;;;24.35;1.83;;;;;;;;;;4962719;28;20046;-59
2022/02/01 15:59:55;;;;;;;14.48;1.45;;;;;;;;;;4994893;28;20100;-59
2022/02/01 16:02:24;;;;;;;15.10;1.80;;;;;;;;;;4988398;28;20085;-60
2022/02/01 16:04:54;;;;;;;12.60;1.35;;;;;;;;;;4981606;28;20046;-59
2022/02/01 16:07:22;;;;;;;14.25;1.20;;;;;;;;;;4986995;28;20108;-60
2022/02/01 16:10:03;;;;;;;17.65;1.80;;;;;;;;;;4981252;28;20077;-60
2022/02/01 16:12:38;;;;;;;8.70;1.50;;;;;;;;;;4987034;28;20058;-57
2022/02/01 16:15:05;;;;;;;12.13;1.50;;;;;;;;;;4989382;28;20058;-59
2022/02/01 16:17:32;;;;;;;12.88;1.73;;;;;;;;;;5002902;28;20144;-60
2022/02/01 16:19:58;;;;;;;13.10;1.45;;;;;;;;;;4996790;28;20149;-58
2022/02/01 16:22:25;;;;;;;21.25;2.58;;;;;;;;;;4986505;28;20063;-59
2022/02/01 16:24:53;;;;;;;22.83;1.80;;;;;;;;;;4980266;28;20054;-60
2022/02/01 16:27:20;;;;;;;28.40;2.20;;;;;;;;;;4986567;28;20058;-59
2022/02/01 16:29:46;;;;;;;23.58;2.20;;;;;;;;;;4981073;28;20128;-59
2022/02/01 16:32:13;;;;;;;30.17;2.03;;;;;;;;;;4985333;28;20050;-58
2022/02/01 16:34:40;;;;;;;18.67;1.63;;;;;;;;;;4980743;28;20153;-60
2022/02/01 16:37:07;;;;;;;24.88;1.77;;;;;;;;;;4986202;28;20050;-60
2022/02/01 16:39:34;;;;;;;21.80;1.88;;;;;;;;;;4986636;28;20057;-59